sensor_id;sensor_type;location;lat;lon;timestamp;pressure;altitude;pressure_sealevel;temperature;humidity
46267;BME280;31998;48.798;15.066;2022-11-23T00:01:35;94559.88;;;2.21;100.00
46267;BME280;31998;48.798;15.066;2022-11-23T00:04:06;94560.44;;;2.18;100.00
46267;BME280;31998;48.798;15.066;2022-11-23T00:06:32;94562.00;;;2.19;100.00
46267;BME280;31998;48.798;15.066;2022-11-23T00:08:58;94560.94;;;2.15;100.00
46267;BME280;31998;48.798;15.066;2022-11-23T00:11:24;94567.06;;;2.21;100.00
46267;BME280;31998;48.798;15.066;2022-11-23T00:13:50;94568.38;;;2.18;100.00
46267;BME280;31998;48.798;15.066;2022-11-23T00:16:18;94572.09;;;2.17;100.00
46267;BME280;31998;48.798;15.066;2022-11-23T00:18:43;94562.25;;;2.07;100.00
46267;BME280;31998;48.798;15.066;2022-11-23T00:21:14;94563.84;;;2.08;100.00
46267;BME280;31998;48.798;15.066;2022-11-23T00:23:40;94576.34;;;2.13;100.00
46267;BME280;31998;48.798;15.066;2022-11-23T00:26:06;94570.78;;;2.09;100.00
46267;BME280;31998;48.798;15.066;2022-11-23T00:28:32;94569.19;;;2.03;100.00
46267;BME280;31998;48.798;15.066;2022-11-23T00:30:57;94572.63;;;2.09;100.00
46267;BME280;31998;48.798;15.066;2022-11-23T00:33:22;94575.28;;;2.09;100.00
46267;BME280;31998;48.798;15.066;2022-11-23T00:35:58;94571.56;;;2.10;100.00
46267;BME280;31998;48.798;15.066;2022-11-23T00:38:23;94570.50;;;2.06;100.00
46267;BME280;31998;48.798;15.066;2022-11-23T00:40:49;94572.63;;;2.04;100.00
46267;BME280;31998;48.798;15.066;2022-11-23T00:43:14;94576.59;;;2.01;100.00
46267;BME280;31998;48.798;15.066;2022-11-23T00:45:39;94573.13;;;2.01;100.00
46267;BME280;31998;48.798;15.066;2022-11-23T00:48:05;94571.28;;;2.01;100.00
46267;BME280;31998;48.798;15.066;2022-11-23T00:50:30;94586.16;;;2.02;100.00
46267;BME280;31998;48.798;15.066;2022-11-23T00:52:56;94585.34;;;2.02;100.00
46267;BME280;31998;48.798;15.066;2022-11-23T00:55:21;94569.69;;;2.00;100.00
46267;BME280;31998;48.798;15.066;2022-11-23T00:57:47;94574.50;;;2.03;100.00
46267;BME280;31998;48.798;15.066;2022-11-23T01:00:12;94573.13;;;2.01;100.00
46267;BME280;31998;48.798;15.066;2022-11-23T01:02:38;94568.38;;;1.98;100.00
46267;BME280;31998;48.798;15.066;2022-11-23T01:05:03;94575.28;;;2.04;100.00
46267;BME280;31998;48.798;15.066;2022-11-23T01:07:29;94577.41;;;2.07;100.00
46267;BME280;31998;48.798;15.066;2022-11-23T01:09:55;94573.69;;;2.08;100.00
46267;BME280;31998;48.798;15.066;2022-11-23T01:12:20;94558.28;;;2.05;100.00
46267;BME280;31998;48.798;15.066;2022-11-23T01:14:46;94571.56;;;2.10;100.00
46267;BME280;31998;48.798;15.066;2022-11-23T01:17:11;94572.63;;;2.14;100.00
46267;BME280;31998;48.798;15.066;2022-11-23T01:19:37;94568.91;;;2.15;100.00
46267;BME280;31998;48.798;15.066;2022-11-23T01:22:02;94568.91;;;2.15;100.00
46267;BME280;31998;48.798;15.066;2022-11-23T01:24:28;94574.22;;;2.15;100.00
46267;BME280;31998;48.798;15.066;2022-11-23T01:26:54;94570.75;;;2.14;100.00
46267;BME280;31998;48.798;15.066;2022-11-23T01:29:22;94573.19;;;2.16;100.00
46267;BME280;31998;48.798;15.066;2022-11-23T01:31:48;94583.00;;;2.15;100.00
46267;BME280;31998;48.798;15.066;2022-11-23T01:34:14;94565.72;;;2.13;100.00
46267;BME280;31998;48.798;15.066;2022-11-23T01:36:40;94572.38;;;2.15;100.00
46267;BME280;31998;48.798;15.066;2022-11-23T01:39:06;94574.22;;;2.15;100.00
46267;BME280;31998;48.798;15.066;2022-11-23T01:41:36;94572.38;;;2.10;100.00
46267;BME280;31998;48.798;15.066;2022-11-23T01:44:25;94573.16;;;2.11;100.00
46267;BME280;31998;48.798;15.066;2022-11-23T01:46:50;94570.00;;;2.09;100.00
46267;BME280;31998;48.798;15.066;2022-11-23T01:49:16;94573.41;;;2.04;100.00
46267;BME280;31998;48.798;15.066;2022-11-23T01:51:44;94577.41;;;2.07;100.00
46267;BME280;31998;48.798;15.066;2022-11-23T01:54:27;94580.03;;;2.07;100.00
46267;BME280;31998;48.798;15.066;2022-11-23T01:56:59;94583.25;;;2.09;100.00
46267;BME280;31998;48.798;15.066;2022-11-23T01:59:27;94574.22;;;2.05;100.00
46267;BME280;31998;48.798;15.066;2022-11-23T02:01:54;94583.78;;;2.11;100.00
46267;BME280;31998;48.798;15.066;2022-11-23T02:04:27;94575.00;;;2.05;100.00
46267;BME280;31998;48.798;15.066;2022-11-23T02:06:54;94586.44;;;2.11;100.00
46267;BME280;31998;48.798;15.066;2022-11-23T02:09:21;94597.03;;;2.11;100.00
46267;BME280;31998;48.798;15.066;2022-11-23T02:11:47;94601.28;;;2.12;100.00
46267;BME280;31998;48.798;15.066;2022-11-23T02:14:13;94607.91;;;2.14;100.00
46267;BME280;31998;48.798;15.066;2022-11-23T02:16:39;94595.44;;;2.15;100.00
46267;BME280;31998;48.798;15.066;2022-11-23T02:19:15;94602.88;;;2.13;100.00
46267;BME280;31998;48.798;15.066;2022-11-23T02:21:46;94601.81;;;2.14;100.00
46267;BME280;31998;48.798;15.066;2022-11-23T02:24:29;94590.66;;;2.12;100.00
46267;BME280;31998;48.798;15.066;2022-11-23T02:26:56;94595.44;;;2.15;100.00
46267;BME280;31998;48.798;15.066;2022-11-23T02:29:25;94590.97;;;2.15;100.00
46267;BME280;31998;48.798;15.066;2022-11-23T02:31:51;94597.59;;;2.18;100.00
46267;BME280;31998;48.798;15.066;2022-11-23T02:34:17;94598.66;;;2.22;100.00
46267;BME280;31998;48.798;15.066;2022-11-23T02:36:51;94595.72;;;2.18;100.00
46267;BME280;31998;48.798;15.066;2022-11-23T02:39:23;94594.38;;;2.21;100.00
46267;BME280;31998;48.798;15.066;2022-11-23T02:41:52;94594.38;;;2.21;100.00
46267;BME280;31998;48.798;15.066;2022-11-23T02:44:48;94597.03;;;2.21;100.00
46267;BME280;31998;48.798;15.066;2022-11-23T02:47:15;94595.19;;;2.22;100.00
46267;BME280;31998;48.798;15.066;2022-11-23T02:49:41;94601.31;;;2.22;100.00
46267;BME280;31998;48.798;15.066;2022-11-23T02:52:09;94597.31;;;2.20;100.00
46267;BME280;31998;48.798;15.066;2022-11-23T02:54:35;94601.31;;;2.22;100.00
46267;BME280;31998;48.798;15.066;2022-11-23T02:57:00;94593.34;;;2.17;100.00
46267;BME280;31998;48.798;15.066;2022-11-23T02:59:25;94601.03;;;2.18;100.00
46267;BME280;31998;48.798;15.066;2022-11-23T03:01:51;94604.50;;;2.24;100.00
46267;BME280;31998;48.798;15.066;2022-11-23T03:04:17;94605.56;;;2.23;100.00
46267;BME280;31998;48.798;15.066;2022-11-23T03:06:42;94601.03;;;2.24;100.00
46267;BME280;31998;48.798;15.066;2022-11-23T03:09:08;94586.97;;;2.18;100.00
46267;BME280;31998;48.798;15.066;2022-11-23T03:11:33;94600.75;;;2.20;100.00
46267;BME280;31998;48.798;15.066;2022-11-23T03:13:59;94602.09;;;2.17;100.00
46267;BME280;31998;48.798;15.066;2022-11-23T03:16:24;94609.25;;;2.17;100.00
46267;BME280;31998;48.798;15.066;2022-11-23T03:18:50;94608.72;;;2.20;100.00
46267;BME280;31998;48.798;15.066;2022-11-23T03:21:15;94597.59;;;2.18;100.00
46267;BME280;31998;48.798;15.066;2022-11-23T03:23:41;94600.75;;;2.20;100.00
46267;BME280;31998;48.798;15.066;2022-11-23T03:26:06;94602.63;;;2.20;100.00
46267;BME280;31998;48.798;15.066;2022-11-23T03:28:32;94598.09;;;2.20;100.00
46267;BME280;31998;48.798;15.066;2022-11-23T03:30:57;94595.44;;;2.20;100.00
46267;BME280;31998;48.798;15.066;2022-11-23T03:33:23;94599.16;;;2.19;100.00
46267;BME280;31998;48.798;15.066;2022-11-23T03:35:48;94594.66;;;2.20;100.00
46267;BME280;31998;48.798;15.066;2022-11-23T03:38:13;94601.81;;;2.19;100.00
46267;BME280;31998;48.798;15.066;2022-11-23T03:40:39;94603.41;;;2.20;100.00
46267;BME280;31998;48.798;15.066;2022-11-23T03:43:05;94611.38;;;2.20;100.00
46267;BME280;31998;48.798;15.066;2022-11-23T03:45:31;94606.88;;;2.21;100.00
46267;BME280;31998;48.798;15.066;2022-11-23T03:47:56;94605.00;;;2.21;100.00
46267;BME280;31998;48.798;15.066;2022-11-23T03:50:22;94614.03;;;2.20;100.00
46267;BME280;31998;48.798;15.066;2022-11-23T03:52:48;94621.19;;;2.20;100.00
46267;BME280;31998;48.798;15.066;2022-11-23T03:55:14;94623.06;;;2.19;100.00
46267;BME280;31998;48.798;15.066;2022-11-23T03:57:40;94625.72;;;2.19;100.00
46267;BME280;31998;48.798;15.066;2022-11-23T04:00:06;94623.06;;;2.19;100.00
46267;BME280;31998;48.798;15.066;2022-11-23T04:02:33;94625.47;;;2.15;100.00
46267;BME280;31998;48.798;15.066;2022-11-23T04:04:58;94631.53;;;2.21;100.00
46267;BME280;31998;48.798;15.066;2022-11-23T04:07:24;94628.09;;;2.21;100.00
46267;BME280;31998;48.798;15.066;2022-11-23T04:09:49;94623.84;;;2.14;100.00
46267;BME280;31998;48.798;15.066;2022-11-23T04:12:14;94635.00;;;2.22;100.00
46267;BME280;31998;48.798;15.066;2022-11-23T04:14:40;94631.53;;;2.21;100.00
46267;BME280;31998;48.798;15.066;2022-11-23T04:17:05;94634.19;;;2.21;100.00
46267;BME280;31998;48.798;15.066;2022-11-23T04:19:30;94627.84;;;2.22;100.00
46267;BME280;31998;48.798;15.066;2022-11-23T04:21:56;94625.44;;;2.21;100.00
46267;BME280;31998;48.798;15.066;2022-11-23T04:24:21;94628.38;;;2.19;100.00
46267;BME280;31998;48.798;15.066;2022-11-23T04:26:47;94622.81;;;2.15;100.00
46267;BME280;31998;48.798;15.066;2022-11-23T04:29:12;94631.28;;;2.17;100.00
46267;BME280;31998;48.798;15.066;2022-11-23T04:31:38;94635.81;;;2.17;100.00
46267;BME280;31998;48.798;15.066;2022-11-23T04:34:03;94633.41;;;2.15;100.00
46267;BME280;31998;48.798;15.066;2022-11-23T04:36:29;94627.31;;;2.10;100.00
46267;BME280;31998;48.798;15.066;2022-11-23T04:38:54;94642.19;;;2.16;100.00
46267;BME280;31998;48.798;15.066;2022-11-23T04:41:20;94642.69;;;2.13;100.00
46267;BME280;31998;48.798;15.066;2022-11-23T04:43:47;94643.22;;;2.15;100.00
46267;BME280;31998;48.798;15.066;2022-11-23T04:46:12;94648.50;;;2.15;100.00
46267;BME280;31998;48.798;15.066;2022-11-23T04:48:38;94638.44;;;2.07;100.00
46267;BME280;31998;48.798;15.066;2022-11-23T04:51:03;94642.66;;;2.08;100.00
46267;BME280;31998;48.798;15.066;2022-11-23T04:53:28;94638.41;;;1.97;100.00
46267;BME280;31998;48.798;15.066;2022-11-23T04:55:54;94650.34;;;1.99;100.00
46267;BME280;31998;48.798;15.066;2022-11-23T04:58:19;94650.06;;;2.01;100.00
46267;BME280;31998;48.798;15.066;2022-11-23T05:00:45;94648.22;;;2.01;100.00
46267;BME280;31998;48.798;15.066;2022-11-23T05:03:10;94651.66;;;2.02;100.00
46267;BME280;31998;48.798;15.066;2022-11-23T05:05:37;94653.28;;;2.03;100.00
46267;BME280;31998;48.798;15.066;2022-11-23T05:08:03;94652.22;;;2.04;100.00
46267;BME280;31998;48.798;15.066;2022-11-23T05:10:28;94651.44;;;2.03;100.00
46267;BME280;31998;48.798;15.066;2022-11-23T05:12:53;94651.44;;;2.03;100.00
46267;BME280;31998;48.798;15.066;2022-11-23T05:15:19;94646.91;;;2.04;100.00
46267;BME280;31998;48.798;15.066;2022-11-23T05:17:44;94647.97;;;1.98;100.00
46267;BME280;31998;48.798;15.066;2022-11-23T05:20:10;94650.63;;;1.98;100.00
46267;BME280;31998;48.798;15.066;2022-11-23T05:22:35;94647.69;;;1.94;100.00
46267;BME280;31998;48.798;15.066;2022-11-23T05:25:01;94646.34;;;1.92;100.00
46267;BME280;31998;48.798;15.066;2022-11-23T05:27:26;94647.41;;;1.90;100.00
46267;BME280;31998;48.798;15.066;2022-11-23T05:29:52;94651.63;;;1.86;100.00
46267;BME280;31998;48.798;15.066;2022-11-23T05:32:17;94643.13;;;1.79;100.00
46267;BME280;31998;48.798;15.066;2022-11-23T05:34:42;94639.38;;;1.75;100.00
46267;BME280;31998;48.798;15.066;2022-11-23T05:37:08;94636.22;;;1.73;100.00
46267;BME280;31998;48.798;15.066;2022-11-23T05:39:33;94642.31;;;1.74;100.00
46267;BME280;31998;48.798;15.066;2022-11-23T05:41:59;94634.88;;;1.76;100.00
46267;BME280;31998;48.798;15.066;2022-11-23T05:44:24;94638.88;;;1.78;100.00
46267;BME280;31998;48.798;15.066;2022-11-23T05:46:50;94647.38;;;1.80;100.00
46267;BME280;31998;48.798;15.066;2022-11-23T05:49:15;94644.19;;;1.78;100.00
46267;BME280;31998;48.798;15.066;2022-11-23T05:51:40;94635.66;;;1.66;100.00
46267;BME280;31998;48.798;15.066;2022-11-23T05:54:06;94635.66;;;1.66;100.00
46267;BME280;31998;48.798;15.066;2022-11-23T05:56:31;94638.84;;;1.68;100.00
46267;BME280;31998;48.798;15.066;2022-11-23T05:58:57;94644.13;;;1.68;100.00
46267;BME280;31998;48.798;15.066;2022-11-23T06:01:22;94648.94;;;1.71;100.00
46267;BME280;31998;48.798;15.066;2022-11-23T06:03:50;94647.63;;;1.74;100.00
46267;BME280;31998;48.798;15.066;2022-11-23T06:06:16;94638.84;;;1.73;100.00
46267;BME280;31998;48.798;15.066;2022-11-23T06:08:41;94652.94;;;1.79;100.00
46267;BME280;31998;48.798;15.066;2022-11-23T06:11:06;94638.88;;;1.78;100.00
46267;BME280;31998;48.798;15.066;2022-11-23T06:13:32;94635.44;;;1.78;100.00
46267;BME280;31998;48.798;15.066;2022-11-23T06:15:57;94648.44;;;1.79;100.00
46267;BME280;31998;48.798;15.066;2022-11-23T06:18:23;94642.03;;;1.75;100.00
46267;BME280;31998;48.798;15.066;2022-11-23T06:20:48;94647.09;;;1.82;100.00
46267;BME280;31998;48.798;15.066;2022-11-23T06:23:14;94655.06;;;1.82;100.00
46267;BME280;31998;48.798;15.066;2022-11-23T06:25:39;94646.31;;;1.76;100.00
46267;BME280;31998;48.798;15.066;2022-11-23T06:28:05;94654.81;;;1.83;100.00
46267;BME280;31998;48.798;15.066;2022-11-23T06:30:30;94663.03;;;1.82;100.00
46267;BME280;31998;48.798;15.066;2022-11-23T06:32:56;94663.81;;;1.82;100.00
46267;BME280;31998;48.798;15.066;2022-11-23T06:35:22;94649.19;;;1.75;100.00
46267;BME280;31998;48.798;15.066;2022-11-23T06:37:49;94668.84;;;1.79;100.00
46267;BME280;31998;48.798;15.066;2022-11-23T06:40:15;94669.66;;;1.79;100.00
46267;BME280;31998;48.798;15.066;2022-11-23T06:42:41;94660.38;;;1.82;100.00
46267;BME280;31998;48.798;15.066;2022-11-23T06:45:07;94663.28;;;1.80;100.00
46267;BME280;31998;48.798;15.066;2022-11-23T06:47:33;94670.75;;;1.83;100.00
46267;BME280;31998;48.798;15.066;2022-11-23T06:49:58;94669.69;;;1.84;100.00
46267;BME280;31998;48.798;15.066;2022-11-23T06:52:23;94665.66;;;1.82;100.00
46267;BME280;31998;48.798;15.066;2022-11-23T06:54:49;94668.59;;;1.80;100.00
46267;BME280;31998;48.798;15.066;2022-11-23T06:57:14;94674.44;;;1.77;100.00
46267;BME280;31998;48.798;15.066;2022-11-23T06:59:40;94670.97;;;1.82;100.00
46267;BME280;31998;48.798;15.066;2022-11-23T07:02:05;94675.75;;;1.80;100.00
46267;BME280;31998;48.798;15.066;2022-11-23T07:04:31;94669.69;;;1.84;100.00
46267;BME280;31998;48.798;15.066;2022-11-23T07:06:56;94673.91;;;1.85;100.00
46267;BME280;31998;48.798;15.066;2022-11-23T07:09:21;94677.06;;;1.82;100.00
46267;BME280;31998;48.798;15.066;2022-11-23T07:11:47;94677.63;;;1.84;100.00
46267;BME280;31998;48.798;15.066;2022-11-23T07:14:12;94682.41;;;1.87;100.00
46267;BME280;31998;48.798;15.066;2022-11-23T07:16:38;94685.63;;;1.89;100.00
46267;BME280;31998;48.798;15.066;2022-11-23T07:19:03;94687.22;;;1.90;100.00
46267;BME280;31998;48.798;15.066;2022-11-23T07:21:29;94672.34;;;1.89;100.00
46267;BME280;31998;48.798;15.066;2022-11-23T07:23:54;94684.81;;;1.94;100.00
46267;BME280;31998;48.798;15.066;2022-11-23T07:26:20;94671.81;;;1.93;100.00
46267;BME280;31998;48.798;15.066;2022-11-23T07:28:45;94675.81;;;1.90;100.00
46267;BME280;31998;48.798;15.066;2022-11-23T07:31:10;94691.22;;;1.98;100.00
46267;BME280;31998;48.798;15.066;2022-11-23T07:33:36;94680.88;;;1.97;100.00
46267;BME280;31998;48.798;15.066;2022-11-23T07:36:02;94683.78;;;2.00;100.00
46267;BME280;31998;48.798;15.066;2022-11-23T07:38:28;94682.47;;;2.03;100.00
46267;BME280;31998;48.798;15.066;2022-11-23T07:40:54;94683.50;;;2.02;100.00
46267;BME280;31998;48.798;15.066;2022-11-23T07:43:19;94692.56;;;2.06;100.00
46267;BME280;31998;48.798;15.066;2022-11-23T07:45:45;94685.63;;;2.00;100.00
46267;BME280;31998;48.798;15.066;2022-11-23T07:48:10;94690.41;;;1.98;100.00
46267;BME280;31998;48.798;15.066;2022-11-23T07:50:37;94685.88;;;1.93;100.00
46267;BME280;31998;48.798;15.066;2022-11-23T07:53:04;94699.16;;;1.98;100.00
46267;BME280;31998;48.798;15.066;2022-11-23T07:55:31;94701.56;;;2.00;100.00
46267;BME280;31998;48.798;15.066;2022-11-23T07:57:57;94693.09;;;2.03;100.00
46267;BME280;31998;48.798;15.066;2022-11-23T08:00:24;94698.66;;;2.06;100.00
46267;BME280;31998;48.798;15.066;2022-11-23T08:02:50;94698.94;;;2.10;100.00
46267;BME280;31998;48.798;15.066;2022-11-23T08:05:16;94693.09;;;2.13;100.00
46267;BME280;31998;48.798;15.066;2022-11-23T08:07:42;94700.78;;;2.14;100.00
46267;BME280;31998;48.798;15.066;2022-11-23T08:10:10;94696.56;;;2.18;100.00
46267;BME280;31998;48.798;15.066;2022-11-23T08:12:35;94696.88;;;2.22;100.00
46267;BME280;31998;48.798;15.066;2022-11-23T08:15:00;94697.09;;;2.21;100.00
46267;BME280;31998;48.798;15.066;2022-11-23T08:17:26;94696.28;;;2.15;100.00
46267;BME280;31998;48.798;15.066;2022-11-23T08:19:51;94700.53;;;2.11;100.00
46267;BME280;31998;48.798;15.066;2022-11-23T08:22:16;94677.97;;;2.08;100.00
46267;BME280;31998;48.798;15.066;2022-11-23T08:24:42;94683.28;;;2.13;100.00
46267;BME280;31998;48.798;15.066;2022-11-23T08:27:08;94687.03;;;2.23;100.00
46267;BME280;31998;48.798;15.066;2022-11-23T08:29:33;94687.84;;;2.23;100.00
46267;BME280;31998;48.798;15.066;2022-11-23T08:31:58;94679.06;;;2.28;100.00
46267;BME280;31998;48.798;15.066;2022-11-23T08:34:24;94679.59;;;2.25;100.00
46267;BME280;31998;48.798;15.066;2022-11-23T08:36:49;94676.69;;;2.26;100.00
46267;BME280;31998;48.798;15.066;2022-11-23T08:39:15;94677.75;;;2.30;100.00
46267;BME280;31998;48.798;15.066;2022-11-23T08:41:41;94680.69;;;2.29;100.00
46267;BME280;31998;48.798;15.066;2022-11-23T08:44:07;94678.28;;;2.27;100.00
46267;BME280;31998;48.798;15.066;2022-11-23T08:46:34;94678.28;;;2.27;100.00
46267;BME280;31998;48.798;15.066;2022-11-23T08:48:59;94684.13;;;2.34;100.00
46267;BME280;31998;48.798;15.066;2022-11-23T08:51:24;94675.91;;;2.41;100.00
46267;BME280;31998;48.798;15.066;2022-11-23T08:53:50;94684.69;;;2.52;100.00
46267;BME280;31998;48.798;15.066;2022-11-23T08:56:15;94687.34;;;2.67;100.00
46267;BME280;31998;48.798;15.066;2022-11-23T08:58:41;94675.16;;;2.76;100.00
46267;BME280;31998;48.798;15.066;2022-11-23T09:01:14;94674.09;;;2.77;100.00
46267;BME280;31998;48.798;15.066;2022-11-23T09:03:40;94679.41;;;2.92;100.00
46267;BME280;31998;48.798;15.066;2022-11-23T09:06:06;94679.41;;;3.03;100.00
46267;BME280;31998;48.798;15.066;2022-11-23T09:08:32;94676.75;;;3.03;100.00
46267;BME280;31998;48.798;15.066;2022-11-23T09:11:03;94671.44;;;3.08;100.00
46267;BME280;31998;48.798;15.066;2022-11-23T09:13:29;94680.44;;;3.12;100.00
46267;BME280;31998;48.798;15.066;2022-11-23T09:15:58;94677.78;;;3.17;100.00
46267;BME280;31998;48.798;15.066;2022-11-23T09:18:24;94674.59;;;3.15;100.00
46267;BME280;31998;48.798;15.066;2022-11-23T09:20:50;94679.69;;;3.01;100.00
46267;BME280;31998;48.798;15.066;2022-11-23T09:23:15;94680.47;;;2.91;100.00
46267;BME280;31998;48.798;15.066;2022-11-23T09:25:41;94679.41;;;2.92;100.00
46267;BME280;31998;48.798;15.066;2022-11-23T09:28:07;94671.41;;;2.92;100.00
46267;BME280;31998;48.798;15.066;2022-11-23T09:30:33;94669.84;;;2.96;100.00
46267;BME280;31998;48.798;15.066;2022-11-23T09:32:58;94674.88;;;3.08;100.00
46267;BME280;31998;48.798;15.066;2022-11-23T09:35:24;94672.19;;;3.18;100.00
46267;BME280;31998;48.798;15.066;2022-11-23T09:37:56;94678.34;;;3.09;100.00
46267;BME280;31998;48.798;15.066;2022-11-23T09:40:23;94679.41;;;3.03;100.00
46267;BME280;31998;48.798;15.066;2022-11-23T09:45:51;94671.41;;;3.13;100.00
46267;BME280;31998;48.798;15.066;2022-11-23T09:48:46;94665.56;;;3.16;100.00
46267;BME280;31998;48.798;15.066;2022-11-23T09:51:19;94668.50;;;3.09;100.00
46267;BME280;31998;48.798;15.066;2022-11-23T09:53:48;94663.19;;;3.09;100.00
46267;BME280;31998;48.798;15.066;2022-11-23T09:56:25;94658.09;;;3.18;100.00
46267;BME280;31998;48.798;15.066;2022-11-23T09:58:55;94668.72;;;3.33;100.00
46267;BME280;31998;48.798;15.066;2022-11-23T10:01:22;94665.28;;;3.17;100.00
46267;BME280;31998;48.798;15.066;2022-11-23T10:03:48;94659.19;;;3.27;100.00
46267;BME280;31998;48.798;15.066;2022-11-23T10:06:21;94659.94;;;3.38;100.00
46267;BME280;31998;48.798;15.066;2022-11-23T10:14:18;94661.78;;;3.37;100.00
46267;BME280;31998;48.798;15.066;2022-11-23T10:17:14;94662.06;;;3.41;100.00
46267;BME280;31998;48.798;15.066;2022-11-23T10:22:46;94654.09;;;3.25;100.00
46267;BME280;31998;48.798;15.066;2022-11-23T10:25:22;94665.28;;;3.28;100.00
46267;BME280;31998;48.798;15.066;2022-11-23T10:27:50;94661.84;;;3.27;100.00
46267;BME280;31998;48.798;15.066;2022-11-23T10:30:18;94666.59;;;3.25;100.00
46267;BME280;31998;48.798;15.066;2022-11-23T10:32:49;94650.94;;;3.23;100.00
46267;BME280;31998;48.798;15.066;2022-11-23T10:35:26;94659.69;;;3.34;100.00
46267;BME280;31998;48.798;15.066;2022-11-23T10:40:37;94661.28;;;3.25;100.00
46267;BME280;31998;48.798;15.066;2022-11-23T10:43:13;94666.59;;;3.25;100.00
46267;BME280;31998;48.798;15.066;2022-11-23T10:45:39;94656.78;;;3.20;100.00
46267;BME280;31998;48.798;15.066;2022-11-23T10:48:05;94653.59;;;3.23;100.00
46267;BME280;31998;48.798;15.066;2022-11-23T10:50:36;94651.47;;;3.20;100.00
46267;BME280;31998;48.798;15.066;2022-11-23T10:58:44;94658.09;;;3.23;100.00
46267;BME280;31998;48.798;15.066;2022-11-23T11:01:13;94650.13;;;3.18;100.00
46267;BME280;31998;48.798;15.066;2022-11-23T11:03:39;94655.97;;;3.25;100.00
46267;BME280;31998;48.798;15.066;2022-11-23T11:06:05;94651.72;;;3.19;100.00
46267;BME280;31998;48.798;15.066;2022-11-23T11:08:34;94653.34;;;3.20;100.00
46267;BME280;31998;48.798;15.066;2022-11-23T11:11:06;94658.63;;;3.30;100.00
46267;BME280;31998;48.798;15.066;2022-11-23T11:13:41;94656.53;;;3.22;100.00
46267;BME280;31998;48.798;15.066;2022-11-23T11:16:29;94643.22;;;3.17;100.00
46267;BME280;31998;48.798;15.066;2022-11-23T11:18:58;94645.59;;;3.29;100.00
46267;BME280;31998;48.798;15.066;2022-11-23T11:21:34;94641.63;;;3.26;100.00
46267;BME280;31998;48.798;15.066;2022-11-23T11:24:11;94646.13;;;3.31;100.00
46267;BME280;31998;48.798;15.066;2022-11-23T11:26:47;94649.84;;;3.30;100.00
46267;BME280;31998;48.798;15.066;2022-11-23T11:29:46;94642.72;;;3.20;100.00
46267;BME280;31998;48.798;15.066;2022-11-23T11:32:13;94648.53;;;3.27;100.00
46267;BME280;31998;48.798;15.066;2022-11-23T11:34:54;94650.66;;;3.30;100.00
46267;BME280;31998;48.798;15.066;2022-11-23T11:40:32;94651.16;;;3.32;100.00
46267;BME280;31998;48.798;15.066;2022-11-23T11:43:50;94643.22;;;3.27;100.00
46267;BME280;31998;48.798;15.066;2022-11-23T11:45:54;94653.31;;;3.30;100.00
46267;BME280;31998;48.798;15.066;2022-11-23T11:48:41;94653.84;;;3.27;100.00
46267;BME280;31998;48.798;15.066;2022-11-23T11:51:16;94649.06;;;3.24;100.00
46267;BME280;31998;48.798;15.066;2022-11-23T11:59:09;94643.22;;;3.27;100.00
46267;BME280;31998;48.798;15.066;2022-11-23T12:01:53;94639.50;;;3.28;100.00
46267;BME280;31998;48.798;15.066;2022-11-23T12:04:30;94643.75;;;3.29;100.00
46267;BME280;31998;48.798;15.066;2022-11-23T12:07:17;94643.19;;;3.32;100.00
46267;BME280;31998;48.798;15.066;2022-11-23T12:09:50;94641.63;;;3.26;100.00
46267;BME280;31998;48.798;15.066;2022-11-23T12:12:17;94642.69;;;3.25;100.00
46267;BME280;31998;48.798;15.066;2022-11-23T12:14:44;94639.78;;;3.26;100.00
46267;BME280;31998;48.798;15.066;2022-11-23T12:23:12;94648.00;;;3.30;100.00
46267;BME280;31998;48.798;15.066;2022-11-23T12:25:43;94631.53;;;3.23;100.00
46267;BME280;31998;48.798;15.066;2022-11-23T12:34:31;94645.84;;;3.42;100.00
46267;BME280;31998;48.798;15.066;2022-11-23T12:42:50;94636.78;;;3.43;100.00
46267;BME280;31998;48.798;15.066;2022-11-23T12:45:32;94633.34;;;3.38;100.00
46267;BME280;31998;48.798;15.066;2022-11-23T12:55:27;94638.88;;;3.51;100.00
46267;BME280;31998;48.798;15.066;2022-11-23T12:58:11;94638.63;;;3.53;100.00
46267;BME280;31998;48.798;15.066;2022-11-23T13:00:53;94634.09;;;3.59;100.00
46267;BME280;31998;48.798;15.066;2022-11-23T13:11:49;94634.13;;;3.48;100.00
46267;BME280;31998;48.798;15.066;2022-11-23T13:22:55;94644.75;;;3.48;100.00
46267;BME280;31998;48.798;15.066;2022-11-23T13:25:24;94636.50;;;3.50;100.00
46267;BME280;31998;48.798;15.066;2022-11-23T13:30:28;94644.19;;;3.51;100.00
46267;BME280;31998;48.798;15.066;2022-11-23T13:40:33;94632.53;;;3.47;100.00
46267;BME280;31998;48.798;15.066;2022-11-23T13:45:45;94633.56;;;3.51;100.00
46267;BME280;31998;48.798;15.066;2022-11-23T13:48:14;94638.34;;;3.54;100.00
46267;BME280;31998;48.798;15.066;2022-11-23T13:53:38;94630.94;;;3.46;100.00
46267;BME280;31998;48.798;15.066;2022-11-23T13:56:38;94639.69;;;3.52;100.00
46267;BME280;31998;48.798;15.066;2022-11-23T14:04:30;94634.09;;;3.53;100.00
46267;BME280;31998;48.798;15.066;2022-11-23T14:06:59;94634.63;;;3.45;100.00
46267;BME280;31998;48.798;15.066;2022-11-23T14:09:44;94633.59;;;3.46;100.00
46267;BME280;31998;48.798;15.066;2022-11-23T14:15:02;94643.16;;;3.42;100.00
46267;BME280;31998;48.798;15.066;2022-11-23T14:18:03;94644.25;;;3.41;100.00
46267;BME280;31998;48.798;15.066;2022-11-23T14:23:59;94645.28;;;3.45;100.00
46267;BME280;31998;48.798;15.066;2022-11-23T14:40:18;94660.44;;;3.45;100.00
46267;BME280;31998;48.798;15.066;2022-11-23T14:42:53;94647.44;;;3.38;100.00
46267;BME280;31998;48.798;15.066;2022-11-23T14:45:20;94655.69;;;3.42;100.00
46267;BME280;31998;48.798;15.066;2022-11-23T14:47:47;94650.34;;;3.42;100.00